Latest Weather Observations for Jervis Bay Airfield

IDN60801

Issued at 5:22 pm EST Friday 1 July 2022 (issued every 10 minutes, with the page automatically refreshed every 10 minutes)

About weather observations | Map of weather stations | Latest weather observations for NSW | Other Formats
Station Details ID: 068264 Name: JERVIS BAY AIRFIELD AWS Lat: -35.14 Lon: 150.70 Height: 57.18 m
Data from the previous 72 hours. | See also: Recent months at Jervis Bay Airfield
Date/Time
EST
Temp
°C
App
Temp
°C
Dew
Point
°C
Rel
Hum
%
Delta-T
°C
Wind Press
QNH
hPa
Press
MSL
hPa
Rain since
9am
mm
Dir  Spd
km/h
Gust
km/h
Spd
kts
Gust
kts
01/05:00pm 11.7 7.0 10.8 94 0.5 S 26 35 14 19 1024.7 1024.7 28.4
01/04:53pm 11.8 7.2 10.9 94 0.5 S 26 33 14 18 1024.7 1024.7 27.8
01/04:38pm 12.0 7.0 10.9 93 0.6 S 28 37 15 20 1024.6 1024.6 26.6
01/04:30pm 12.0 6.5 10.6 91 0.7 S 30 39 16 21 1024.6 1024.6 26.2
01/04:13pm 12.6 9.0 11.8 95 0.4 S 22 32 12 17 1024.5 1024.5 24.8
01/04:05pm 12.4 7.9 11.3 93 0.6 SSE 26 33 14 18 1024.4 1024.4 23.8
01/04:00pm 12.2 7.5 10.8 91 0.7 SSE 26 35 14 19 1024.3 1024.3 23.6
01/03:57pm 12.3 7.7 10.9 91 0.7 SSE 26 35 14 19 1024.3 1024.3 23.4
01/03:30pm 12.2 6.9 11.4 95 0.4 S 30 41 16 22 1024.4 1024.4 21.2
01/03:00pm 12.3 6.9 10.9 91 0.7 S 30 41 16 22 1024.3 1024.3 16.6
01/02:54pm 12.5 7.6 11.2 92 0.7 S 28 41 15 22 1024.2 1024.2 15.8
01/02:43pm 12.5 6.9 11.4 93 0.6 S 32 43 17 23 1024.1 1024.1 14.6
01/02:40pm 12.6 6.7 11.2 91 0.7 S 33 46 18 25 1024.1 1024.1 14.4
01/02:30pm 12.5 6.6 11.2 92 0.7 S 33 46 18 25 1024.2 1024.2 14.2
01/02:17pm 12.8 7.2 11.5 92 0.7 S 32 50 17 27 1024.0 1024.0 13.6
01/02:08pm 12.8 8.0 11.7 93 0.6 S 28 50 15 27 1024.0 1024.0 13.4
01/02:00pm 12.6 9.3 11.7 94 0.5 S 20 32 11 17 1024.1 1024.1 13.2
01/01:30pm 12.4 9.8 11.9 97 0.3 SSW 17 24 9 13 1024.3 1024.3 9.8
01/01:00pm 11.7 6.3 10.9 95 0.4 SW 30 44 16 24 1024.7 1024.7 6.6
01/12:42pm 11.5 6.4 10.7 95 0.4 SW 28 46 15 25 1024.6 1024.6 6.0
01/12:30pm 11.2 6.8 10.4 95 0.4 SW 24 35 13 19 1025.2 1025.2 4.8
01/12:00pm 11.5 6.3 10.2 92 0.7 SW 28 37 15 20 1025.0 1025.0 0.8
01/11:48am 11.5 5.9 10.2 92 0.7 SW 30 43 16 23 1025.3 1025.3 0.8
01/11:30am 11.5 6.6 10.1 91 0.7 SW 26 37 14 20 1025.4 1025.4 0.6
01/11:23am 11.5 7.4 10.2 92 0.7 SW 22 32 12 17 1025.5 1025.5 0.4
01/11:07am 11.5 6.6 9.9 90 0.8 SW 26 33 14 18 1026.0 1026.0 0.2
01/11:00am 11.7 7.1 9.6 87 1.1 SW 24 35 13 19 1025.8 1025.8 0.2
01/10:47am 11.8 7.1 9.2 84 1.3 SW 24 33 13 18 1026.1 1026.1 0.2
01/10:30am 11.9 7.2 9.3 84 1.3 SW 24 41 13 22 1026.0 1026.0 0.2
01/10:00am 12.0 6.2 9.4 84 1.3 SW 30 39 16 21 1026.2 1026.2 0.0
01/09:30am 12.1 6.1 8.8 80 1.6 SW 30 43 16 23 1026.1 1026.1 0.0
01/09:00am 12.1 6.8 8.4 78 1.8 SW 26 33 14 18 1026.5 1026.5 0.0
01/08:30am 12.4 7.4 7.9 74 2.2 SW 24 35 13 19 1026.3 1026.3 0.0
01/08:00am 12.6 7.2 8.1 74 2.2 SW 26 43 14 23 1026.0 1026.0 0.0
01/07:30am 12.7 7.7 8.2 74 2.2 SW 24 33 13 18 1026.3 1026.3 0.0
01/07:00am 12.4 8.4 8.3 76 2.0 SW 19 26 10 14 1025.9 1025.9 0.0
01/06:30am 12.3 8.1 7.4 72 2.4 SW 19 28 10 15 1025.8 1025.8 0.0
01/06:00am 12.0 7.5 6.3 68 2.7 SW 19 26 10 14 1025.8 1025.8 0.0
01/05:30am 10.6 7.3 6.2 74 2.1 WSW 13 20 7 11 1025.6 1025.6 0.0
01/05:00am 10.3 6.6 6.1 75 1.9 W 15 19 8 10 1025.9 1025.9 0.0
01/04:30am 11.7 7.0 5.3 65 3.0 WSW 19 24 10 13 1025.5 1025.5 0.0
01/04:00am 12.6 8.0 5.5 62 3.3 SW 19 24 10 13 1025.5 1025.5 0.0
01/03:30am 13.1 8.5 6.5 64 3.2 SW 20 28 11 15 1025.3 1025.3 0.0
01/03:00am 12.9 8.5 6.7 66 3.0 SW 19 26 10 14 1025.0 1025.0 0.0
01/02:30am 12.7 8.4 7.0 68 2.8 SW 19 26 10 14 1024.8 1024.8 0.0
01/02:00am 12.7 8.2 6.1 64 3.1 SW 19 28 10 15 1025.2 1025.2 0.0
01/01:30am 12.3 8.3 6.8 69 2.6 SW 17 28 9 15 1025.3 1025.3 0.0
01/01:00am 12.1 7.6 7.0 71 2.4 SW 20 28 11 15 1025.2 1025.2 0.0
01/12:30am 12.1 7.6 7.0 71 2.5 SW 20 28 11 15 1025.2 1025.2 0.0
01/12:00am 12.2 8.3 7.3 72 2.4 SW 17 22 9 12 1025.4 1025.4 0.0
 
Date/Time
EST
Temp
°C
App
Temp
°C
Dew
Point
°C
Rel
Hum
%
Delta-T
°C
Wind Press
QNH
hPa
Press
MSL
hPa
Rain since
9am
mm
Dir  Spd
km/h
Gust
km/h
Spd
kts
Gust
kts
30/11:30pm 12.4 8.1 7.1 70 2.6 SW 19 28 10 15 1025.4 1025.4 0.0
30/11:00pm 12.8 8.4 7.3 69 2.7 SW 20 30 11 16 1025.5 1025.5 0.0
30/10:30pm 12.8 8.4 7.3 69 2.7 SW 20 30 11 16 1025.5 1025.5 0.0
30/10:00pm 12.7 8.2 7.0 68 2.7 SW 20 30 11 16 1025.4 1025.4 0.0
30/09:30pm 13.4 10.2 8.3 71 2.5 SSW 15 19 8 10 1025.4 1025.4 0.0
30/09:00pm 13.3 10.4 8.2 71 2.5 SSW 13 17 7 9 1025.1 1025.1 0.0
30/08:30pm 12.9 10.8 8.2 73 2.3 W 9 15 5 8 1025.2 1025.2 0.0
30/08:00pm 13.9 10.8 7.2 64 3.3 SSW 13 19 7 10 1025.1 1025.1 0.0
30/07:30pm 14.2 10.7 7.3 63 3.4 SSW 15 19 8 10 1024.9 1024.9 0.0
30/07:00pm 14.3 10.5 7.4 63 3.4 S 17 22 9 12 1024.7 1024.7 0.0
30/06:30pm 14.3 10.8 7.4 63 3.4 S 15 22 8 12 1024.4 1024.4 0.0
30/06:00pm 14.3 10.7 6.9 61 3.6 S 15 22 8 12 1024.2 1024.2 0.0
30/05:30pm 14.1 10.1 6.7 61 3.6 S 17 22 9 12 1023.9 1023.9 0.0
30/05:00pm 14.1 10.4 6.5 60 3.7 S 15 19 8 10 1023.7 1023.7 0.0
30/04:30pm 14.2 10.1 6.3 59 3.8 S 17 20 9 11 1023.8 1023.8 0.0
30/04:00pm 14.8 10.6 5.6 54 4.4 S 17 22 9 12 1023.4 1023.4 0.0
30/03:30pm 15.0 10.7 6.8 58 4.0 S 19 28 10 15 1023.5 1023.5 0.0
30/03:00pm 15.1 10.9 5.6 53 4.5 S 17 22 9 12 1023.4 1023.4 0.0
30/02:30pm 15.2 10.4 4.9 50 4.8 S 19 24 10 13 1023.4 1023.4 0.0
30/02:00pm 15.7 11.9 3.8 45 5.5 S 13 19 7 10 1023.2 1023.2 0.0
30/01:30pm 15.7 11.8 3.5 44 5.6 S 13 19 7 10 1023.0 1023.0 0.0
30/01:00pm 15.4 12.5 4.5 48 5.1 SSW 9 13 5 7 1023.1 1023.1 0.0
30/12:30pm 15.6 11.5 2.1 40 6.0 SSW 13 17 7 9 1023.3 1023.3 0.0
30/12:00pm 15.7 11.9 3.8 45 5.5 SSW 13 17 7 9 1023.4 1023.4 0.0
30/11:30am 15.3 12.0 4.4 48 5.1 SSW 11 17 6 9 1023.6 1023.6 0.0
30/11:00am 14.9 11.3 3.1 45 5.3 SW 11 17 6 9 1023.6 1023.6 0.0
30/10:30am 14.2 10.9 4.8 53 4.4 WSW 11 15 6 8 1024.0 1024.0 0.0
30/10:00am 13.2 10.1 5.6 60 3.6 W 11 15 6 8 1023.9 1023.9 0.0
30/09:30am 11.9 8.9 5.8 66 2.9 W 11 15 6 8 1023.8 1023.8 0.0
30/09:00am 11.8 8.5 4.5 61 3.3 W 11 13 6 7 1023.4 1023.4 0.0
30/08:30am 11.8 8.5 4.3 60 3.4 W 11 15 6 8 1023.5 1023.5 0.0
30/08:00am 11.9 8.2 4.2 59 3.5 WSW 13 19 7 10 1023.5 1023.5 0.0
30/07:30am 11.9 7.8 4.6 61 3.3 WSW 15 19 8 10 1023.0 1023.0 0.0
30/07:00am 12.0 7.6 4.7 61 3.3 WSW 17 20 9 11 1022.3 1022.3 0.0
30/06:30am 12.2 7.8 4.9 61 3.4 WSW 17 20 9 11 1022.1 1022.1 0.0
30/06:00am 12.9 8.9 4.8 58 3.7 SW 15 24 8 13 1021.7 1021.7 0.0
30/05:30am 11.9 7.9 5.1 63 3.1 WSW 15 20 8 11 1021.3 1021.3 0.0
30/05:00am 10.8 7.0 6.0 72 2.2 W 15 17 8 9 1021.6 1021.6 0.0
30/04:30am 10.4 7.5 6.5 77 1.8 W 11 13 6 7 1021.1 1021.1 0.0
30/04:00am 10.8 7.9 6.4 74 2.1 WNW 11 15 6 8 1021.0 1021.0 0.0
30/03:30am 11.1 7.8 6.3 72 2.3 WNW 13 19 7 10 1020.7 1020.6 0.0
30/03:00am 10.6 8.0 6.0 73 2.1 W 9 11 5 6 1019.9 1019.8 0.0
30/02:30am 10.8 8.2 6.2 73 2.2 NW 9 15 5 8 1020.4 1020.3 0.0
30/02:00am 10.1 8.4 5.7 74 2.0 W 4 6 2 3 1020.3 1020.2 0.0
30/01:30am 10.2 7.5 5.6 73 2.1 NW 9 11 5 6 1020.8 1020.7 0.0
30/01:00am 10.7 7.2 5.5 70 2.4 NNW 13 17 7 9 1021.2 1021.2 0.0
30/12:30am 10.9 7.0 5.2 68 2.6 NNW 15 20 8 11 1020.8 1020.7 0.0
30/12:00am 11.4 7.5 5.3 66 2.8 NNW 15 17 8 9 1020.8 1020.7 0.0
 
Date/Time
EST
Temp
°C
App
Temp
°C
Dew
Point
°C
Rel
Hum
%
Delta-T
°C
Wind Press
QNH
hPa
Press
MSL
hPa
Rain since
9am
mm
Dir  Spd
km/h
Gust
km/h
Spd
kts
Gust
kts
29/11:30pm 11.6 7.7 5.3 65 2.9 NNW 15 20 8 11 1021.2 1021.2 0.0
29/11:00pm 11.7 7.4 5.3 65 2.9 NNW 17 22 9 12 1021.2 1021.2 0.0
29/10:30pm 11.5 6.8 5.2 65 2.9 NNW 19 26 10 14 1021.5 1021.5 0.0
29/10:00pm 12.0 7.1 5.0 62 3.2 NNW 20 28 11 15 1021.2 1021.2 0.0
29/09:30pm 12.1 7.7 5.0 62 3.3 NNW 17 26 9 14 1021.3 1021.3 0.0
29/09:00pm 12.1 7.4 5.3 63 3.1 NNW 19 22 10 12 1021.4 1021.4 0.0
29/08:30pm 12.4 7.5 5.3 62 3.3 NNW 20 28 11 15 1021.5 1021.5 0.0
29/08:00pm 12.2 8.0 5.6 64 3.1 NNW 17 22 9 12 1021.6 1021.6 0.0
29/07:30pm 12.3 8.4 5.5 63 3.2 NNW 15 20 8 11 1021.4 1021.4 0.0
29/07:00pm 11.5 8.0 5.4 66 2.8 NNW 13 19 7 10 1021.6 1021.6 0.0
29/06:30pm 12.0 8.5 5.4 64 3.1 N 13 17 7 9 1021.6 1021.6 0.0
29/06:00pm 12.9 9.5 5.8 62 3.3 NNW 13 17 7 9 1021.8 1021.8 0.0
29/05:30pm 12.5 9.1 6.1 65 3.0 N 13 17 7 9 1021.8 1021.8 0.0
29/05:00pm 13.0 8.5 5.9 62 3.3 NNW 19 22 10 12 1021.7 1021.7 0.0
29/04:30pm 13.2 9.5 6.1 62 3.4 NNW 15 19 8 10 1021.5 1021.5 0.0
29/04:00pm 13.7 10.3 6.1 60 3.6 NNW 13 17 7 9 1021.8 1021.8 0.0
29/03:30pm 15.7 12.4 6.2 53 4.6 NW 13 17 7 9 1022.1 1022.1 0.0
29/03:00pm 15.0 12.1 6.6 57 4.1 NW 11 15 6 8 1022.0 1022.0 0.0
29/02:30pm 14.9 11.2 6.2 56 4.2 NW 15 20 8 11 1022.2 1022.2 0.0
29/02:00pm 16.2 11.7 6.3 52 4.8 NW 19 24 10 13 1022.2 1022.2 0.0
29/01:30pm 16.0 11.6 6.7 54 4.6 NW 19 24 10 13 1022.5 1022.5 0.0
29/01:00pm 15.7 11.6 6.4 54 4.5 NW 17 24 9 13 1022.8 1022.8 0.0
29/12:30pm 15.3 10.7 6.6 56 4.2 NW 20 28 11 15 1023.3 1023.3 0.0
29/12:00pm 14.8 10.3 6.9 59 3.8 NW 20 32 11 17 1024.1 1024.1 0.0
29/11:30am 14.5 10.0 6.1 57 4.0 NW 19 28 10 15 1024.7 1024.7 0.0
29/11:00am 14.1 8.8 6.7 61 3.6 NW 24 32 13 17 1025.3 1025.3 0.0
29/10:30am 12.8 7.3 5.9 63 3.3 NW 24 30 13 16 1025.5 1025.5 0.0
29/10:00am 11.9 7.2 6.0 67 2.8 NW 20 30 11 16 1025.6 1025.6 0.0
29/09:30am 11.9 7.4 6.2 68 2.7 NW 19 24 10 13 1025.7 1025.7 0.0
29/09:00am 11.6 7.1 6.1 69 2.6 NW 19 28 10 15 1025.6 1025.6 0.0
29/08:30am 10.8 6.2 5.6 70 2.4 NW 19 28 10 15 1025.6 1025.6 0.0
29/08:00am 9.8 5.2 5.6 75 1.9 NW 19 24 10 13 1025.7 1025.7 0.0
29/07:30am 9.4 4.6 5.6 77 1.7 NW 20 26 11 14 1025.7 1025.7 0.0
29/07:00am 9.4 4.8 5.8 78 1.6 NW 19 26 10 14 1025.5 1025.5 0.0
29/06:30am 9.4 4.8 5.8 78 1.6 NW 19 24 10 13 1025.4 1025.4 0.0
29/06:00am 9.3 5.2 6.0 80 1.5 WNW 17 22 9 12 1025.6 1025.6 0.0
29/05:30am 9.7 5.2 6.2 79 1.6 WNW 19 24 10 13 1025.5 1025.5 0.0
29/05:00am 9.3 4.8 6.2 81 1.4 WNW 19 24 10 13 1025.5 1025.5 0.0
29/04:30am 9.0 4.9 6.1 82 1.3 NW 17 20 9 11 1025.3 1025.3 0.0
29/04:00am 8.9 4.8 6.0 82 1.3 WNW 17 19 9 10 1025.9 1025.9 0.0
29/03:30am 8.4 5.4 5.9 84 1.1 WNW 11 15 6 8 1026.0 1026.0 0.0
29/03:00am 8.2 5.1 5.7 84 1.1 WNW 11 15 6 8 1026.6 1026.6 0.0
29/02:30am 8.0 5.3 5.5 84 1.1 W 9 11 5 6 1026.8 1026.8 0.0
29/02:00am 8.2 5.5 5.7 84 1.1 W 9 13 5 7 1026.8 1026.8 0.0
29/01:30am 7.6 4.4 5.2 85 1.1 WNW 11 13 6 7 1026.8 1026.8 0.0
29/01:00am 7.9 4.8 5.5 85 1.1 WNW 11 13 6 7 1027.0 1027.0 0.0
29/12:30am 7.5 5.1 5.1 85 1.1 WNW 7 9 4 5 1027.2 1027.2 0.0
29/12:00am 7.4 5.1 5.0 85 1.1 WNW 6 11 3 6 1027.6 1027.6 0.0
 
Date/Time
EST
Temp
°C
App
Temp
°C
Dew
Point
°C
Rel
Hum
%
Delta-T
°C
Wind Press
QNH
hPa
Press
MSL
hPa
Rain since
9am
mm
Dir  Spd
km/h
Gust
km/h
Spd
kts
Gust
kts
28/11:30pm 8.1 5.7 5.4 83 1.2 WNW 7 11 4 6 1027.7 1027.7 0.0
28/11:00pm 7.9 5.2 5.7 86 1.0 WNW 9 13 5 7 1027.9 1027.9 0.0
28/10:30pm 7.6 5.0 5.9 89 0.8 WNW 9 11 5 6 1028.2 1028.2 0.0
28/10:00pm 7.9 4.9 6.2 89 0.8 W 11 13 6 7 1028.4 1028.4 0.0
28/09:30pm 7.8 4.9 6.4 91 0.6 W 11 13 6 7 1028.7 1028.7 0.0
28/09:00pm 7.9 4.9 6.2 89 0.8 W 11 15 6 8 1029.1 1029.1 0.0
28/08:30pm 8.2 5.0 6.7 90 0.7 W 13 15 7 8 1029.2 1029.2 0.0
28/08:00pm 8.3 5.2 7.2 93 0.5 W 13 15 7 8 1029.4 1029.4 0.0
28/07:30pm 8.8 5.7 7.4 91 0.7 W 13 15 7 8 1029.5 1029.5 0.0
28/07:00pm 9.5 8.4 6.8 83 1.3 S 2 6 1 3 1029.6 1029.6 0.0
28/06:30pm 10.1 8.3 7.3 83 1.3 SSW 6 7 3 4 1029.6 1029.6 0.0
28/06:00pm 9.5 7.6 6.8 83 1.3 S 6 7 3 4 1029.6 1029.6 0.0
28/05:30pm 10.4 8.4 6.2 75 2.0 SSE 6 7 3 4 1029.7 1029.7 0.0

Other formats

Comma delimited format used in spreadsheet applications
http://www.bom.gov.au/fwo/IDN60801/IDN60801.94751.axf

JavaScript Object Notation format (JSON) in row-major order
http://www.bom.gov.au/fwo/IDN60801/IDN60801.94751.json

Data quality

Most of these data are generated automatically and are frequently updated. Quality checks on data are not normally performed. It is possible for incorrect values to appear. Refer to information at About Latest Weather Observations and please check the disclaimer before using these data.